AirNav   Everest Fuels
 
 1479 users online  

MY99 Johnston Airport
Hawley, Minnesota, USA

GOING TO HAWLEY?


FAA INFORMATION EFFECTIVE 03 NOVEMBER 2022

Location

FAA Identifier: MY99
Lat/Long: 46-51-26.8500N 096-14-06.7200W
46-51.447500N 096-14.112000W
46.8574583,-96.2352000
(estimated)
Elevation: 1360 ft. / 415 m (estimated)
Variation: 04E (1990)
From city: 4 miles SE of HAWLEY, MN
Time zone: UTC -6 (UTC -5 during Daylight Saving Time)
Zip code: 56549

Airport Operations

Airport use: Private use, PERSONAL USE.
Activation date: 12/1992
Control tower: no
ARTCC: MINNEAPOLIS CENTER
FSS: PRINCETON FLIGHT SERVICE STATION
Attendance: UNATNDD
Segmented circle: no

Airport Communications

WX AWOS-3PT at DTL (15 nm E): 119.075 (218-847-8626)
WX AWOS-3 at JKJ (18 nm W): 120.0 (218-287-5049)

Nearby radio navigation aids

VOR radial/distance  VOR name  Freq  Var
DTLr276/14.4DETROIT LAKES VOR/DME111.2002E
FARr067/26.1FARGO VOR/DME116.2009E
FFMr350/34.2FERGUS FALLS VOR/DME110.4005E

Airport Services

Runway Information

Runway 11/29

Dimensions: 3600 x 75 ft. / 1097 x 23 m
Surface: turf, in good condition
RUNWAY 11  RUNWAY 29
Traffic pattern: leftleft

Airport Ownership and Management from official FAA records

Ownership: Privately-owned
Owner: STEPHEN JOHNSTON
27107 12TH AVE S
HAWLEY, MN 56549
Phone 218-937-5595
Manager: STEPHEN JOHNSTON
27107 12TH AVE S
HAWLEY, MN 56549
Phone 218-937-5595

Airport Operational Statistics

Aircraft based on the field: 5
Single engine airplanes: 3
Ultralights: 2
    

Additional Remarks

FOR CD CTC MINNEAPOLIS ARTCC AT 651-463-5588.

Instrument Procedures

There are no published instrument procedures at MY99.

Some nearby airports with instrument procedures:

04Y - Hawley Municipal Airport (5 nm W)
KDTL - Detroit Lakes Airport-Wething Field (15 nm E)
KJKJ - Moorhead Municipal Airport/Florence Klingensmith Field (18 nm W)
KFAR - Hector International Airport (24 nm W)
D00 - Norman County Ada/Twin Valley Airport (25 nm N)
 
Loc | Ops | Rwys | IFR | FBO | Links
Com | Nav | Svcs | Stats | Notes
Area around MY99 (Johnston Airport)
 
Road maps at: MapQuest Bing Google
 
Aerial photo
WARNING: Photo may not be current or correct
Aerial photo of MY99 (Johnston Airport)
Do you have a better or more recent aerial photo of Johnston Airport that you would like to share? If so, please send us your photo.

 
Sectional chart

 
Airport distance calculator
Flying to Johnston Airport? Find the distance to fly.

From to MY99

Sunrise and sunset
Times for 29-Nov-2022
 Local
(UTC-6)
 Zulu
(UTC)
Morning civil twilight07:1413:14
Sunrise07:4813:48
Sunset16:3922:39
Evening civil twilight17:1323:13

Current date and time
Zulu (UTC)  29-Nov-2022 17:03:45
Local (UTC-6)  29-Nov-2022 11:03:45
 
METAR
KDTL 
15nm E 
291655Z AUTO 28012KT 10SM CLR M08/M13 A2969 RMK AO2
KJKJ 
18nm W 
291655Z AUTO 27012G16KT 10SM CLR M07/M12 A2974 RMK AO2 TSNO
KFAR 
24nm W 
291653Z 25013KT 10SM CLR M08/M12 A2973 RMK AO2 SLP084 T10781122
K3N8 
27nm NE 
291655Z AUTO 24012KT 10SM CLR M09/M12 A2971 RMK AO2 T10861122
TAF
KFAR 
24nm W 
291123Z 2912/3012 24010KT P6SM BKN220 FM291600 26012KT P6SM BKN130 FM291900 29014KT P6SM BKN060 FM292100 29014KT P6SM OVC030 FM300900 30016G25KT P6SM BKN035
NOTAMs
Click for the latest NOTAMs
NOTAMs are issued by the DoD/FAA and will open in a separate window not controlled by AirNav.

 

 
 

Would you like to see your business listed on this page?

 If your business provides an interesting product or service to pilots, flight crews, aircraft, or users of the Johnston Airport, you should consider listing it here.  To start the listing process, click on the button below
 
Add a business
 

Other Pages about Johnston Airport

Update a link
 
Copyright © AirNav, LLC. All rights reserved. Privacy Policy  Contact